Terminal Aerodrome Forecast
Issued by NWS Grand Forks, ND

Home | Current Version | Previous Version | Text Only | Print | Product List | Glossary Off
Versions: 1 2 3 4 5 6 7 8 9 10 11 12

000
FTUS43 KFGF 241700
TAFGFK
TAF
KGFK 241720Z 2418/2518 26012KT P6SM FEW150 SCT250
     FM241900 26016G22KT P6SM SCT150
     FM242300 29010KT P6SM SCT250=

USA.gov is the U.S. government's official web portal to all federal, state and local government web resources and services.